createdAt,value
2023-01-05T00:08:37.146Z,0.80
2023-01-05T00:18:57.495Z,0.68
2023-01-05T00:28:58.811Z,1.27
2023-01-05T00:39:00.044Z,1.20
2023-01-05T00:49:01.324Z,0.90
2023-01-05T00:59:02.563Z,1.20
2023-01-05T01:09:03.855Z,1.05
2023-01-05T01:19:05.649Z,0.90
2023-01-05T01:29:07.104Z,0.90
2023-01-05T01:39:08.374Z,0.82
2023-01-05T01:49:11.435Z,1.02
2023-01-05T01:59:12.685Z,0.60
2023-01-05T02:09:13.952Z,0.50
2023-01-05T02:19:15.167Z,0.45
2023-01-05T02:29:16.424Z,0.50
2023-01-05T02:39:17.687Z,0.40
2023-01-05T02:49:18.924Z,0.90
2023-01-05T02:59:20.158Z,0.50
2023-01-05T03:09:25.867Z,0.35
2023-01-05T03:19:36.186Z,0.30
2023-01-05T03:29:56.300Z,0.30
2023-01-05T03:39:57.527Z,0.50
2023-01-05T03:49:58.741Z,0.40
2023-01-05T03:59:59.983Z,0.50
2023-01-05T04:10:01.386Z,0.32
2023-01-05T04:20:02.713Z,0.20
2023-01-05T04:30:04.064Z,0.40
2023-01-05T04:40:05.340Z,0.32
2023-01-05T04:50:06.601Z,0.20
2023-01-05T05:00:07.839Z,0.60
2023-01-05T05:10:09.103Z,0.43
2023-01-05T05:20:10.358Z,0.65
2023-01-05T05:30:11.720Z,0.60
2023-01-05T05:40:12.958Z,0.85
2023-01-05T05:50:14.238Z,2.03
2023-01-05T06:00:15.482Z,1.20
2023-01-05T06:10:16.721Z,1.10
2023-01-05T06:20:18.143Z,1.20
2023-01-05T06:30:19.433Z,2.10
2023-01-05T06:40:20.694Z,1.35
2023-01-05T06:50:21.946Z,1.75
2023-01-05T07:00:23.474Z,1.73
2023-01-05T07:10:24.746Z,1.60
2023-01-05T07:20:25.968Z,2.30
2023-01-05T07:30:27.321Z,2.30
2023-01-05T07:40:28.689Z,2.20
2023-01-05T07:50:29.973Z,2.42
2023-01-05T08:00:31.194Z,1.90
2023-01-05T08:10:32.525Z,1.60
2023-01-05T08:20:33.837Z,2.15
2023-01-05T08:30:35.139Z,2.10
2023-01-05T08:40:36.369Z,2.20
2023-01-05T08:50:38.420Z,2.17
2023-01-05T09:00:39.763Z,2.13
2023-01-05T09:10:41.014Z,2.38
2023-01-05T09:20:42.254Z,2.63
2023-01-05T09:30:50.217Z,3.22
2023-01-05T09:40:51.951Z,4.03
2023-01-05T09:50:53.195Z,4.70
2023-01-05T10:00:54.432Z,2.72
2023-01-05T10:11:14.288Z,3.55
2023-01-05T10:21:15.692Z,2.97
2023-01-05T10:31:16.954Z,4.10
2023-01-05T10:41:18.192Z,3.25
2023-01-05T10:51:34.271Z,4.30
2023-01-05T11:01:35.659Z,2.88
2023-01-05T11:11:36.998Z,3.05
2023-01-05T11:21:39.459Z,3.30
2023-01-05T11:31:42.982Z,3.30
2023-01-05T11:41:44.449Z,3.78
2023-01-05T11:51:45.833Z,2.70
2023-01-05T12:01:47.121Z,2.70
2023-01-05T12:12:08.650Z,3.38
2023-01-05T12:43:17.322Z,3.40
2023-01-05T12:53:18.585Z,3.40
2023-01-05T13:03:19.808Z,2.97
2023-01-05T13:13:21.148Z,3.28
2023-01-05T13:23:22.509Z,2.83
2023-01-05T13:33:23.733Z,2.95
2023-01-05T13:43:25.002Z,3.63
2023-01-05T13:53:26.285Z,4.85
2023-01-05T14:03:27.533Z,5.15
2023-01-05T14:13:28.766Z,3.80
2023-01-05T14:23:30.397Z,3.65
2023-01-05T14:33:31.635Z,3.83
2023-01-05T14:43:32.924Z,3.38
2023-01-05T14:53:34.152Z,3.53
2023-01-05T15:03:36.544Z,2.67
2023-01-05T15:13:38.041Z,3.15
2023-01-05T15:23:39.466Z,5.30
2023-01-05T15:33:40.712Z,3.22
2023-01-05T15:43:42.501Z,4.35
2023-01-05T15:53:44.309Z,4.75
2023-01-05T16:03:45.545Z,4.28
2023-01-05T16:13:46.843Z,3.45
2023-01-05T16:23:48.133Z,3.55
2023-01-05T16:33:49.371Z,3.47
2023-01-05T16:43:50.722Z,6.95
2023-01-05T16:53:52.002Z,3.75
2023-01-05T17:03:53.297Z,4.53
2023-01-05T17:13:54.625Z,3.58
2023-01-05T17:23:55.918Z,3.70
2023-01-05T17:33:57.463Z,2.95
2023-01-05T17:43:58.700Z,3.53
2023-01-05T17:53:59.929Z,3.00
2023-01-05T18:04:01.141Z,3.10
2023-01-05T18:14:02.425Z,4.30
2023-01-05T18:24:03.782Z,3.00
2023-01-05T18:34:05.119Z,3.15
2023-01-05T18:44:06.785Z,2.85
2023-01-05T18:54:08.171Z,4.35
2023-01-05T19:04:09.407Z,3.50
2023-01-05T19:14:10.642Z,3.13
2023-01-05T19:24:11.902Z,3.00
2023-01-05T19:34:14.778Z,3.60
2023-01-05T19:44:16.058Z,2.85
2023-01-05T19:54:17.324Z,3.20
2023-01-05T20:04:18.621Z,3.60
2023-01-05T20:14:20.773Z,4.75
2023-01-05T20:24:22.459Z,3.58
2023-01-05T20:34:23.691Z,4.32
2023-01-05T20:44:24.966Z,5.40
2023-01-05T20:54:26.287Z,7.25
2023-01-05T21:04:27.534Z,5.32
2023-01-05T21:14:28.833Z,5.70
2023-01-05T21:24:30.105Z,5.10
2023-01-05T21:34:31.357Z,4.88
2023-01-05T21:44:32.992Z,6.90
2023-01-05T21:54:53.130Z,5.03
2023-01-05T22:04:54.392Z,5.22
2023-01-05T22:14:55.613Z,5.53
2023-01-05T22:24:56.994Z,4.82
2023-01-05T22:34:58.230Z,4.20
2023-01-05T22:44:59.513Z,4.68
2023-01-05T22:55:00.735Z,3.25
2023-01-05T23:05:03.906Z,2.90
2023-01-05T23:15:05.424Z,4.65
2023-01-05T23:25:06.840Z,3.80
2023-01-05T23:35:08.093Z,2.80
2023-01-05T23:45:09.336Z,2.80
2023-01-05T23:55:10.565Z,2.78
